Time;durP1;ratioP1;P1;durP2;ratioP2;P2;SDS_P1;SDS_P2;PMS_P1;PMS_P2;Temp;Humidity;BMP_temperature;BMP_pressure;BME280_temperature;BME280_humidity;BME280_pressure;Samples;Min_cycle;Max_cycle;Signal;HPM_P1;HPM_P2
2023/05/09 00:02:03;;;;;;;31.27;14.90;;;14.50;99.90;;;;;;4991689;28;20057;-79
2023/05/09 00:04:50;;;;;;;38.30;19.75;;;14.60;99.90;;;;;;4978577;28;20433;-79
2023/05/09 00:07:37;;;;;;;40.08;19.92;;;14.50;99.90;;;;;;5010030;28;20042;-81
2023/05/09 00:10:27;;;;;;;37.50;19.67;;;14.60;99.90;;;;;;4995011;28;20413;-78
2023/05/09 00:13:14;;;;;;;35.60;18.60;;;14.60;99.90;;;;;;4993638;28;20512;-78
2023/05/09 00:16:01;;;;;;;38.67;16.38;;;14.50;99.90;;;;;;4992914;28;20049;-80
2023/05/09 00:18:47;;;;;;;36.25;18.40;;;14.50;99.90;;;;;;4995861;28;20049;-80
2023/05/09 00:21:34;;;;;;;40.90;19.80;;;14.50;99.90;;;;;;4994205;28;20746;-79
2023/05/09 00:24:20;;;;;;;48.97;21.67;;;14.50;99.90;;;;;;4992994;28;20410;-79
2023/05/09 00:27:06;;;;;;;43.35;19.98;;;14.40;99.90;;;;;;5009095;28;20064;-80
2023/05/09 00:29:52;;;;;;;47.60;22.63;;;14.40;99.90;;;;;;5009815;28;20061;-80
2023/05/09 00:32:40;;;;;;;47.63;20.10;;;14.40;99.90;;;;;;5009281;28;20383;-79
2023/05/09 00:35:31;;;;;;;52.63;24.02;;;14.40;99.90;;;;;;4992077;28;20049;-80
2023/05/09 00:38:22;;;;;;;43.20;22.48;;;14.40;99.90;;;;;;4992099;28;20064;-78
2023/05/09 00:41:08;;;;;;;41.75;20.55;;;14.30;99.90;;;;;;4978283;28;20065;-79
2023/05/09 00:43:58;;;;;;;45.83;21.45;;;14.30;99.90;;;;;;4992952;28;20057;-79
2023/05/09 00:46:45;;;;;;;44.83;19.75;;;14.30;99.90;;;;;;4983980;28;20049;-78
2023/05/09 00:49:31;;;;;;;41.88;20.45;;;14.30;99.90;;;;;;4991173;28;20148;-78
2023/05/09 00:52:22;;;;;;;55.40;24.17;;;14.30;99.90;;;;;;4993062;28;20061;-79
2023/05/09 00:55:09;;;;;;;38.53;20.40;;;14.30;99.90;;;;;;4992813;28;20410;-79
2023/05/09 00:57:55;;;;;;;35.03;19.20;;;14.30;99.90;;;;;;4966132;28;20057;-79
2023/05/09 01:01:01;;;;;;;48.03;22.00;;;14.30;99.90;;;;;;5003470;28;20572;-78
2023/05/09 01:03:49;;;;;;;47.90;23.50;;;14.30;99.90;;;;;;4994979;28;20053;-78
2023/05/09 01:07:02;;;;;;;53.78;24.05;;;14.20;99.90;;;;;;5010722;28;20133;-79
2023/05/09 01:10:03;;;;;;;41.60;21.02;;;14.20;99.90;;;;;;4991555;28;20113;-79
2023/05/09 01:13:13;;;;;;;40.10;20.35;;;14.20;99.90;;;;;;4991390;28;20141;-80
2023/05/09 01:16:30;;;;;;;46.72;21.85;;;14.20;99.90;;;;;;4996229;28;20053;-80
2023/05/09 01:19:34;;;;;;;55.47;25.85;;;14.20;99.90;;;;;;5013410;28;20379;-79
2023/05/09 01:22:27;;;;;;;48.17;23.23;;;14.20;99.90;;;;;;4996070;28;20686;-78
2023/05/09 01:25:52;;;;;;;58.72;25.65;;;14.20;99.90;;;;;;4995162;28;20522;-78
2023/05/09 01:29:15;;;;;;;44.20;21.35;;;14.30;99.90;;;;;;4971027;28;20057;-79
2023/05/09 01:32:07;;;;;;;54.20;23.73;;;14.20;99.90;;;;;;4995236;28;20092;-79
2023/05/09 01:34:59;;;;;;;54.00;23.67;;;14.20;99.90;;;;;;4981941;28;20061;-79
2023/05/09 01:37:49;;;;;;;53.70;23.65;;;14.20;99.90;;;;;;4995634;28;20085;-79
2023/05/09 01:40:37;;;;;;;58.90;25.67;;;14.20;99.90;;;;;;4994840;28;20053;-80
2023/05/09 01:43:26;;;;;;;58.83;25.45;;;14.10;99.90;;;;;;4980573;28;20081;-80
2023/05/09 01:46:13;;;;;;;50.40;23.83;;;14.20;99.90;;;;;;5012224;28;20050;-80
2023/05/09 01:49:05;;;;;;;61.72;26.38;;;14.20;99.90;;;;;;5012067;28;20050;-80
2023/05/09 01:51:52;;;;;;;52.95;24.67;;;14.10;99.90;;;;;;4994916;28;20110;-79
2023/05/09 01:54:40;;;;;;;61.22;25.90;;;14.20;99.90;;;;;;5011105;28;20058;-79
2023/05/09 01:57:28;;;;;;;59.38;24.98;;;14.20;99.90;;;;;;5011972;28;20050;-79
2023/05/09 02:00:18;;;;;;;58.28;25.38;;;14.10;99.90;;;;;;4998962;28;20054;-79
2023/05/09 02:03:05;;;;;;;51.53;23.23;;;14.10;99.90;;;;;;4994137;28;20041;-79
2023/05/09 02:05:54;;;;;;;50.50;21.67;;;14.10;99.90;;;;;;4981640;28;20402;-79
2023/05/09 02:08:41;;;;;;;51.17;23.48;;;14.10;99.90;;;;;;4994655;28;20041;-79
2023/05/09 02:11:27;;;;;;;55.97;25.55;;;14.10;99.90;;;;;;4994510;28;20490;-80
2023/05/09 02:14:16;;;;;;;70.75;27.10;;;14.10;99.90;;;;;;4998167;28;20053;-79
2023/05/09 02:17:05;;;;;;;53.53;24.38;;;14.10;99.90;;;;;;4994735;28;20058;-80
2023/05/09 02:19:51;;;;;;;57.17;25.60;;;14.10;99.90;;;;;;4980483;28;20046;-80
2023/05/09 02:22:42;;;;;;;61.72;25.73;;;14.10;99.90;;;;;;5012371;28;20053;-78
2023/05/09 02:25:29;;;;;;;62.72;26.67;;;14.10;99.90;;;;;;4993157;28;20565;-79
2023/05/09 02:28:34;;;;;;;60.47;25.80;;;14.10;99.90;;;;;;4999987;28;20045;-80
2023/05/09 02:31:24;;;;;;;55.28;25.10;;;14.10;99.90;;;;;;4979631;28;20050;-80
2023/05/09 02:34:12;;;;;;;58.55;25.77;;;14.10;99.90;;;;;;4994650;28;20054;-80
2023/05/09 02:36:58;;;;;;;52.45;23.38;;;14.00;99.90;;;;;;4993556;28;20486;-80
2023/05/09 02:39:46;;;;;;;58.60;26.10;;;14.10;99.90;;;;;;4994497;28;20437;-80
2023/05/09 02:42:32;;;;;;;62.35;27.60;;;14.00;99.90;;;;;;4993734;28;20049;-79
2023/05/09 02:45:18;;;;;;;43.13;21.65;;;14.00;99.90;;;;;;4980586;28;20054;-80
2023/05/09 02:48:05;;;;;;;46.35;22.88;;;14.00;99.90;;;;;;5010225;28;20042;-80
2023/05/09 02:50:51;;;;;;;56.50;24.50;;;14.00;99.90;;;;;;5011072;28;20525;-80
2023/05/09 02:53:37;;;;;;;66.60;26.40;;;14.00;99.90;;;;;;5010464;28;20058;-80
2023/05/09 02:56:24;;;;;;;59.40;25.25;;;14.00;99.90;;;;;;4994715;28;20061;-80
2023/05/09 02:59:10;;;;;;;54.45;26.27;;;14.00;99.90;;;;;;4993204;28;20506;-79
2023/05/09 03:01:57;;;;;;;55.38;24.83;;;14.00;99.90;;;;;;4992824;28;20452;-80
2023/05/09 03:04:43;;;;;;;58.53;25.33;;;14.00;99.90;;;;;;4993915;28;20489;-79
2023/05/09 03:07:29;;;;;;;59.03;23.73;;;14.00;99.90;;;;;;4979897;28;20407;-79
2023/05/09 03:10:15;;;;;;;58.13;27.25;;;14.00;99.90;;;;;;4981044;28;20089;-80
2023/05/09 03:13:01;;;;;;;63.95;27.70;;;14.00;99.90;;;;;;4960109;28;20409;-79
2023/05/09 03:15:49;;;;;;;68.45;27.48;;;14.00;99.90;;;;;;4995204;28;20580;-78
2023/05/09 03:18:36;;;;;;;56.83;25.15;;;14.00;99.90;;;;;;4975840;28;20054;-79
2023/05/09 03:21:22;;;;;;;68.90;28.25;;;14.00;99.90;;;;;;4991659;28;20074;-79
2023/05/09 03:24:09;;;;;;;67.45;29.90;;;14.00;99.90;;;;;;5006233;28;20175;-79
2023/05/09 03:26:58;;;;;;;62.33;29.27;;;14.00;99.90;;;;;;4987745;28;20061;-80
2023/05/09 03:29:48;;;;;;;73.38;30.15;;;14.00;99.90;;;;;;5010349;28;20081;-80
2023/05/09 03:32:34;;;;;;;69.97;29.25;;;14.00;99.90;;;;;;4991492;28;20503;-80
2023/05/09 03:35:26;;;;;;;64.53;28.08;;;14.00;99.90;;;;;;4980003;28;20056;-80
2023/05/09 03:38:16;;;;;;;80.32;31.30;;;13.90;99.90;;;;;;5009758;28;20045;-80
2023/05/09 03:41:02;;;;;;;65.05;27.98;;;13.90;99.90;;;;;;4989685;28;20060;-80
2023/05/09 03:43:48;;;;;;;81.60;34.35;;;13.90;99.90;;;;;;4993319;28;20045;-80
2023/05/09 03:46:34;;;;;;;64.07;28.30;;;13.90;99.90;;;;;;4980013;28;20497;-80
2023/05/09 03:49:21;;;;;;;76.05;31.95;;;13.90;99.90;;;;;;4982803;28;20441;-79
2023/05/09 03:52:07;;;;;;;83.72;31.92;;;13.90;99.90;;;;;;4979045;28;20054;-79
2023/05/09 03:54:53;;;;;;;76.68;30.58;;;13.90;99.90;;;;;;5010675;28;20046;-79
2023/05/09 03:57:39;;;;;;;74.40;32.85;;;13.90;99.90;;;;;;4992606;28;20053;-79
2023/05/09 04:00:25;;;;;;;72.03;32.92;;;13.90;99.90;;;;;;4993588;28;20173;-80
2023/05/09 04:03:11;;;;;;;88.18;34.92;;;13.90;99.90;;;;;;4966364;28;20650;-80
2023/05/09 04:05:58;;;;;;;73.32;30.80;;;13.90;99.90;;;;;;5009901;28;20060;-80
2023/05/09 04:08:44;;;;;;;99.38;39.10;;;13.90;99.90;;;;;;5008934;28;20049;-81
2023/05/09 04:11:30;;;;;;;83.90;34.78;;;13.90;99.90;;;;;;4992168;28;20093;-80
2023/05/09 04:14:17;;;;;;;83.45;33.20;;;13.90;99.90;;;;;;4978860;28;20498;-80
2023/05/09 04:17:03;;;;;;;87.68;36.10;;;13.90;99.90;;;;;;4979851;28;20495;-80
2023/05/09 04:19:50;;;;;;;79.10;33.28;;;13.90;99.90;;;;;;4993160;28;20502;-80
2023/05/09 04:22:36;;;;;;;81.72;34.58;;;13.90;99.90;;;;;;4992174;28;20509;-81
2023/05/09 04:25:22;;;;;;;97.18;38.20;;;13.90;99.90;;;;;;4993276;28;20089;-80
2023/05/09 04:28:08;;;;;;;95.00;38.30;;;14.00;99.90;;;;;;4991105;28;20049;-80
2023/05/09 04:30:57;;;;;;;92.95;37.25;;;14.00;99.90;;;;;;5010160;28;20054;-80
2023/05/09 04:33:45;;;;;;;89.28;37.15;;;14.00;99.90;;;;;;4993364;28;20103;-80
2023/05/09 04:36:32;;;;;;;89.55;36.30;;;14.00;99.90;;;;;;4979890;28;20498;-80
2023/05/09 04:39:18;;;;;;;100.78;39.42;;;14.00;99.90;;;;;;4991731;28;20146;-79
2023/05/09 04:42:04;;;;;;;103.78;40.28;;;14.00;99.90;;;;;;4991452;28;20514;-80
2023/05/09 04:44:55;;;;;;;95.90;36.90;;;14.00;99.90;;;;;;4982122;28;20042;-80
2023/05/09 04:47:41;;;;;;;90.88;38.13;;;14.00;99.90;;;;;;5009705;28;20480;-80
2023/05/09 04:50:28;;;;;;;88.90;38.20;;;14.00;99.90;;;;;;4991724;28;20059;-81
2023/05/09 04:53:14;;;;;;;103.25;39.97;;;14.00;99.90;;;;;;5005522;28;20070;-79
2023/05/09 04:56:01;;;;;;;102.82;39.15;;;14.10;99.90;;;;;;4970829;28;20145;-80
2023/05/09 04:58:47;;;;;;;110.88;39.75;;;14.10;99.90;;;;;;4994273;28;20050;-79
2023/05/09 05:01:33;;;;;;;97.82;40.13;;;14.10;99.90;;;;;;4963177;28;20065;-80
2023/05/09 05:04:19;;;;;;;95.55;38.08;;;14.20;99.90;;;;;;4993752;28;20108;-79
2023/05/09 05:07:05;;;;;;;103.53;41.53;;;14.10;99.90;;;;;;4977185;28;20123;-79
2023/05/09 05:09:51;;;;;;;100.30;38.47;;;14.10;99.90;;;;;;4976535;28;20062;-79
2023/05/09 05:12:37;;;;;;;112.50;41.63;;;14.20;99.90;;;;;;4993610;28;20046;-79
2023/05/09 05:15:25;;;;;;;97.45;38.80;;;14.20;99.90;;;;;;4980375;28;20201;-79
2023/05/09 05:18:13;;;;;;;99.65;42.33;;;14.20;99.90;;;;;;4975651;28;20163;-79
2023/05/09 05:20:59;;;;;;;101.70;40.70;;;14.20;99.90;;;;;;4976035;28;20046;-79
2023/05/09 05:23:45;;;;;;;99.82;42.58;;;14.20;99.90;;;;;;4993844;28;20051;-80
2023/05/09 05:26:31;;;;;;;112.65;43.40;;;14.20;99.90;;;;;;4975839;28;20050;-80
2023/05/09 05:29:17;;;;;;;109.53;44.38;;;14.20;99.90;;;;;;4974450;28;20050;-78
2023/05/09 05:32:03;;;;;;;121.30;47.03;;;14.20;99.90;;;;;;4975691;28;20054;-79
2023/05/09 05:34:51;;;;;;;105.30;42.72;;;14.20;99.90;;;;;;4975680;28;20133;-80
2023/05/09 05:37:46;;;;;;;97.90;41.15;;;14.20;99.90;;;;;;4975991;28;20086;-79
2023/05/09 05:40:32;;;;;;;102.00;43.22;;;14.30;99.90;;;;;;4978990;28;20054;-80
2023/05/09 05:43:18;;;;;;;99.00;41.33;;;14.30;99.90;;;;;;4975311;28;20054;-79
2023/05/09 05:46:04;;;;;;;112.72;46.35;;;14.30;99.90;;;;;;4962580;28;20069;-80
2023/05/09 05:48:51;;;;;;;101.10;43.45;;;14.40;99.90;;;;;;4979414;28;20137;-80
2023/05/09 05:51:37;;;;;;;130.00;48.63;;;14.40;99.90;;;;;;4962136;28;20047;-80
2023/05/09 05:54:24;;;;;;;113.60;47.78;;;14.40;99.90;;;;;;4978025;28;20407;-78
2023/05/09 05:57:10;;;;;;;117.45;48.47;;;14.40;99.90;;;;;;4995261;28;20053;-79
2023/05/09 05:59:57;;;;;;;140.63;55.88;;;14.50;99.90;;;;;;4981008;28;20491;-79
2023/05/09 06:02:44;;;;;;;115.70;50.30;;;14.50;99.90;;;;;;4992916;28;20050;-79
2023/05/09 06:05:30;;;;;;;126.50;52.70;;;14.60;99.90;;;;;;4994522;28;20058;-79
2023/05/09 06:08:17;;;;;;;141.35;53.83;;;14.60;99.90;;;;;;5001735;28;20056;-79
2023/05/09 06:11:04;;;;;;;142.18;58.80;;;14.70;99.90;;;;;;4981233;28;20045;-80
2023/05/09 06:13:52;;;;;;;130.82;53.45;;;14.70;99.90;;;;;;4980063;28;20053;-80
2023/05/09 06:16:39;;;;;;;142.63;56.58;;;14.80;99.90;;;;;;4995025;28;20117;-79
2023/05/09 06:19:26;;;;;;;129.52;54.80;;;14.90;99.90;;;;;;4994219;28;20066;-80
2023/05/09 06:22:33;;;;;;;135.15;55.58;;;15.00;99.90;;;;;;5000194;28;20267;-79
2023/05/09 06:25:21;;;;;;;113.32;52.88;;;15.00;99.90;;;;;;4994279;28;20092;-80
2023/05/09 06:28:07;;;;;;;123.10;54.45;;;15.10;99.90;;;;;;5010979;28;20116;-80
2023/05/09 06:30:59;;;;;;;123.15;54.35;;;15.20;99.90;;;;;;4993504;28;20058;-79
2023/05/09 06:33:46;;;;;;;120.35;53.70;;;15.20;99.90;;;;;;4995268;28;20140;-79
2023/05/09 06:36:32;;;;;;;113.00;51.03;;;15.30;99.90;;;;;;4992959;28;20046;-78
2023/05/09 06:39:19;;;;;;;126.13;52.33;;;15.40;99.90;;;;;;4994329;28;20092;-79
2023/05/09 06:42:06;;;;;;;117.70;53.05;;;15.40;99.90;;;;;;5006432;28;20049;-80
2023/05/09 06:44:52;;;;;;;117.53;52.22;;;15.50;99.90;;;;;;4973821;28;20050;-79
2023/05/09 06:47:38;;;;;;;118.97;52.40;;;15.50;99.90;;;;;;4978460;28;20133;-78
2023/05/09 06:50:28;;;;;;;110.65;52.40;;;15.60;99.90;;;;;;4962751;28;20050;-79
2023/05/09 06:53:15;;;;;;;107.38;49.03;;;15.60;99.90;;;;;;4993924;28;20144;-79
2023/05/09 06:56:05;;;;;;;103.80;49.15;;;15.60;99.90;;;;;;4997196;28;20485;-79
2023/05/09 06:58:51;;;;;;;101.70;51.30;;;15.60;99.90;;;;;;4980595;28;20061;-80
2023/05/09 07:01:39;;;;;;;116.38;52.13;;;15.60;99.90;;;;;;4992499;28;20133;-79
2023/05/09 07:04:29;;;;;;;108.70;50.25;;;15.60;99.90;;;;;;4993800;28;20462;-80
2023/05/09 07:07:16;;;;;;;107.13;49.97;;;15.60;99.90;;;;;;5011291;28;20413;-80
2023/05/09 07:10:03;;;;;;;97.38;48.03;;;15.70;99.90;;;;;;4992874;28;20068;-80
2023/05/09 07:12:49;;;;;;;102.05;48.75;;;15.80;99.90;;;;;;4993366;28;20057;-80
2023/05/09 07:15:35;;;;;;;107.72;50.80;;;15.80;99.90;;;;;;5010031;28;20053;-80
2023/05/09 07:18:22;;;;;;;103.15;49.22;;;15.80;99.90;;;;;;4979160;28;20050;-80
2023/05/09 07:21:08;;;;;;;107.45;47.13;;;15.80;99.90;;;;;;4994356;28;20100;-80
2023/05/09 07:23:55;;;;;;;100.88;47.88;;;15.80;99.90;;;;;;4994090;28;20060;-79
2023/05/09 07:26:41;;;;;;;100.35;48.13;;;15.80;99.90;;;;;;5010935;28;20549;-79
2023/05/09 07:29:27;;;;;;;97.97;49.05;;;15.90;99.90;;;;;;4980409;28;20489;-79
2023/05/09 07:32:13;;;;;;;93.53;47.42;;;16.00;99.90;;;;;;5011732;28;20092;-78
2023/05/09 07:34:59;;;;;;;92.72;45.28;;;16.10;99.90;;;;;;5011068;28;20057;-79
2023/05/09 07:37:45;;;;;;;95.07;46.58;;;16.20;99.90;;;;;;4992385;28;20490;-79
2023/05/09 07:40:36;;;;;;;90.72;43.60;;;16.30;99.90;;;;;;4995977;28;20053;-79
2023/05/09 07:43:22;;;;;;;98.95;46.90;;;16.50;99.90;;;;;;5010222;28;20054;-80
2023/05/09 07:46:08;;;;;;;91.53;44.63;;;16.60;99.90;;;;;;5010782;28;20565;-79
2023/05/09 07:48:54;;;;;;;86.40;43.38;;;16.60;99.90;;;;;;5011673;28;20042;-78
2023/05/09 07:51:40;;;;;;;82.78;43.22;;;16.60;99.90;;;;;;4996564;28;20137;-79
2023/05/09 07:54:26;;;;;;;89.00;45.35;;;16.60;99.90;;;;;;5009750;28;20064;-79
2023/05/09 07:57:12;;;;;;;91.53;43.42;;;16.60;99.90;;;;;;5009774;28;20113;-79
2023/05/09 07:59:58;;;;;;;79.65;42.40;;;16.70;99.90;;;;;;4979721;28;20152;-79
2023/05/09 08:02:44;;;;;;;94.22;44.47;;;16.70;99.90;;;;;;5010356;28;20049;-80
2023/05/09 08:05:30;;;;;;;78.90;42.20;;;16.60;99.90;;;;;;4993541;28;20073;-79
2023/05/09 08:08:16;;;;;;;81.20;43.08;;;16.60;99.90;;;;;;5010730;28;20486;-80
2023/05/09 08:11:04;;;;;;;84.60;42.10;;;16.50;99.90;;;;;;4993164;28;20505;-79
2023/05/09 08:13:50;;;;;;;88.28;43.33;;;16.50;99.90;;;;;;5010190;28;20053;-79
2023/05/09 08:16:36;;;;;;;79.10;42.58;;;16.50;99.90;;;;;;5009668;28;20580;-80
2023/05/09 08:19:24;;;;;;;77.18;40.17;;;16.50;99.90;;;;;;4990942;28;20046;-79
2023/05/09 08:22:19;;;;;;;74.80;40.03;;;16.50;99.90;;;;;;5009835;28;20386;-79
2023/05/09 08:25:06;;;;;;;82.68;40.28;;;16.50;99.90;;;;;;4992710;28;20053;-80
2023/05/09 08:27:53;;;;;;;80.30;39.33;;;16.50;99.90;;;;;;5010003;28;20157;-80
2023/05/09 08:30:39;;;;;;;79.05;39.30;;;16.40;99.90;;;;;;5010624;28;20120;-80
2023/05/09 08:33:25;;;;;;;81.38;39.10;;;16.40;99.90;;;;;;4978953;28;20057;-80
2023/05/09 08:36:11;;;;;;;85.10;40.55;;;16.40;99.90;;;;;;5010652;28;20050;-80
2023/05/09 08:38:57;;;;;;;75.88;38.60;;;16.30;99.90;;;;;;5009984;28;20112;-80
2023/05/09 08:41:45;;;;;;;74.82;38.22;;;16.40;99.90;;;;;;5010020;28;20049;-80
2023/05/09 08:44:31;;;;;;;75.97;38.90;;;16.30;99.90;;;;;;5009671;28;20046;-79
2023/05/09 08:47:19;;;;;;;73.13;38.53;;;16.30;99.90;;;;;;5008295;28;20467;-79
2023/05/09 08:50:07;;;;;;;82.50;40.10;;;16.40;99.90;;;;;;5009458;28;20058;-79
2023/05/09 08:52:53;;;;;;;73.15;38.55;;;16.40;99.90;;;;;;5008017;28;20422;-80
2023/05/09 08:55:39;;;;;;;78.93;38.67;;;16.50;99.90;;;;;;4994843;28;20108;-79
2023/05/09 08:58:26;;;;;;;78.13;39.80;;;16.50;99.90;;;;;;4991745;28;20061;-79
2023/05/09 09:01:13;;;;;;;70.25;37.70;;;16.60;99.90;;;;;;5009836;28;20050;-79
2023/05/09 09:04:00;;;;;;;78.78;39.75;;;16.70;99.90;;;;;;5008899;28;20050;-80
2023/05/09 09:06:47;;;;;;;79.32;39.13;;;16.80;99.90;;;;;;5009402;28;20050;-80
2023/05/09 09:09:35;;;;;;;71.25;38.03;;;17.00;99.90;;;;;;4991307;28;20140;-79
2023/05/09 09:12:22;;;;;;;67.72;36.75;;;17.10;99.90;;;;;;5009587;28;20049;-80
2023/05/09 09:15:13;;;;;;;71.88;37.35;;;17.20;99.90;;;;;;4994912;28;20046;-80
2023/05/09 09:18:15;;;;;;;71.78;37.75;;;17.30;99.90;;;;;;5009481;28;20161;-80
2023/05/09 09:21:07;;;;;;;66.35;36.42;;;17.40;99.90;;;;;;5008532;28;20046;-80
2023/05/09 09:23:55;;;;;;;73.30;36.75;;;17.60;99.90;;;;;;5009910;28;20070;-78
2023/05/09 09:26:50;;;;;;;69.07;37.83;;;17.70;99.90;;;;;;4990624;28;20042;-78
2023/05/09 09:29:37;;;;;;;;;;;17.70;99.90;;;;;;5010514;28;20101;-78
2023/05/09 09:32:32;;;;;;;75.50;36.33;;;17.70;99.90;;;;;;4991833;28;20361;-78
2023/05/09 09:35:19;;;;;;;67.05;35.90;;;17.80;99.90;;;;;;5009508;28;20552;-79
2023/05/09 09:38:05;;;;;;;66.78;36.78;;;17.90;99.90;;;;;;5010149;28;20058;-77
2023/05/09 09:40:51;;;;;;;66.70;35.60;;;17.90;99.90;;;;;;5012154;28;20104;-79
2023/05/09 09:43:37;;;;;;;71.10;38.28;;;17.90;99.90;;;;;;5012179;28;20046;-79
2023/05/09 09:46:24;;;;;;;65.47;35.83;;;17.80;99.90;;;;;;5012932;28;20053;-79
2023/05/09 09:49:14;;;;;;;70.45;38.50;;;17.80;99.90;;;;;;5013288;28;20060;-78
2023/05/09 09:52:00;;;;;;;63.42;36.03;;;17.80;99.90;;;;;;4997767;28;20057;-79
2023/05/09 09:54:46;;;;;;;69.15;36.95;;;17.80;99.90;;;;;;5012564;28;20526;-79
2023/05/09 09:57:36;;;;;;;64.28;36.60;;;17.90;99.90;;;;;;5013451;28;20052;-80
2023/05/09 10:00:27;;;;;;;65.82;36.75;;;18.00;99.90;;;;;;5013334;28;20417;-80
2023/05/09 10:03:17;;;;;;;58.67;33.47;;;18.20;99.90;;;;;;4995532;28;20042;-80
2023/05/09 10:06:03;;;;;;;64.63;32.80;;;18.30;99.90;;;;;;5005565;28;20053;-80
2023/05/09 10:08:49;;;;;;;54.25;30.85;;;18.30;99.90;;;;;;4985988;28;20406;-79
2023/05/09 10:11:35;;;;;;;59.13;30.95;;;18.50;99.90;;;;;;5011013;28;20046;-78
2023/05/09 10:14:24;;;;;;;50.10;26.90;;;18.50;99.90;;;;;;4993371;28;20100;-79
2023/05/09 10:17:13;;;;;;;48.65;28.55;;;18.50;99.90;;;;;;5012148;28;20061;-80
2023/05/09 10:20:04;;;;;;;50.38;29.27;;;18.40;99.90;;;;;;5011393;28;20049;-80
2023/05/09 10:22:57;;;;;;;46.38;27.00;;;18.40;99.90;;;;;;4993879;28;20066;-80
2023/05/09 10:25:48;;;;;;;42.20;24.55;;;18.50;99.90;;;;;;5012460;28;20065;-81
2023/05/09 10:28:37;;;;;;;44.80;26.17;;;18.50;99.90;;;;;;4993612;28;20632;-80
2023/05/09 10:31:23;;;;;;;47.40;25.45;;;18.60;99.90;;;;;;5011872;28;20050;-80
2023/05/09 10:34:11;;;;;;;40.03;24.60;;;18.60;99.90;;;;;;5012351;28;20145;-78
2023/05/09 10:36:59;;;;;;;45.70;25.77;;;18.80;99.90;;;;;;4993393;28;20066;-79
2023/05/09 10:39:45;;;;;;;39.95;24.27;;;18.80;99.90;;;;;;5011049;28;20062;-79
2023/05/09 10:42:32;;;;;;;37.90;23.30;;;18.80;99.90;;;;;;4992888;28;20107;-79
2023/05/09 10:45:22;;;;;;;39.55;21.52;;;18.90;99.90;;;;;;4993179;28;20058;-79
2023/05/09 10:48:09;;;;;;;34.45;21.60;;;18.90;99.90;;;;;;5004634;28;20089;-80
2023/05/09 10:50:56;;;;;;;36.13;20.67;;;18.90;99.90;;;;;;4973990;28;20054;-79
2023/05/09 10:53:43;;;;;;;28.80;19.08;;;18.80;99.90;;;;;;5011078;28;20426;-80
2023/05/09 10:56:34;;;;;;;31.63;18.60;;;18.70;99.90;;;;;;4980015;28;20132;-78
2023/05/09 10:59:38;;;;;;;34.05;19.80;;;18.70;99.90;;;;;;4995723;28;20069;-80
2023/05/09 11:02:29;;;;;;;28.98;16.27;;;18.60;99.90;;;;;;5011980;28;20053;-79
2023/05/09 11:05:17;;;;;;;26.58;16.63;;;18.50;99.90;;;;;;4993770;28;20056;-79
2023/05/09 11:08:25;;;;;;;28.38;17.13;;;18.50;99.90;;;;;;5011876;28;20057;-79
2023/05/09 11:11:26;;;;;;;31.15;16.65;;;18.50;99.90;;;;;;4992851;28;20057;-80
2023/05/09 11:14:48;;;;;;;29.67;16.27;;;18.60;99.90;;;;;;4992796;28;20046;-79
2023/05/09 11:17:37;;;;;;;29.52;16.35;;;18.60;99.90;;;;;;4995768;28;20096;-79
2023/05/09 11:20:27;;;;;;;24.48;14.77;;;18.50;99.90;;;;;;4992868;28;20062;-80
2023/05/09 11:23:24;;;;;;;28.20;15.05;;;18.50;99.90;;;;;;4993828;28;20435;-79
2023/05/09 11:26:10;;;;;;;22.38;14.02;;;18.40;99.90;;;;;;4993127;28;20610;-78
2023/05/09 11:28:58;;;;;;;23.23;14.57;;;18.50;99.90;;;;;;5008462;28;20474;-80
2023/05/09 11:32:03;;;;;;;28.40;15.18;;;18.50;99.90;;;;;;5010342;28;20556;-78
2023/05/09 11:34:50;;;;;;;26.48;15.80;;;18.60;99.90;;;;;;5010596;28;20520;-79
2023/05/09 11:37:45;;;;;;;28.38;15.90;;;18.50;99.90;;;;;;4980232;28;20188;-79
2023/05/09 11:40:33;;;;;;;26.60;16.00;;;18.60;99.90;;;;;;4991356;28;20151;-78
2023/05/09 11:43:19;;;;;;;26.13;14.93;;;18.60;99.90;;;;;;5011153;28;20132;-79
2023/05/09 11:46:05;;;;;;;21.23;14.15;;;18.50;99.90;;;;;;5010170;28;20513;-81
2023/05/09 11:48:52;;;;;;;23.85;14.75;;;18.60;99.90;;;;;;5008681;28;20486;-79
2023/05/09 11:51:39;;;;;;;27.83;14.95;;;18.60;99.90;;;;;;5010665;28;20046;-80
2023/05/09 11:54:25;;;;;;;27.50;17.38;;;18.60;99.90;;;;;;5008629;28;20115;-79
2023/05/09 11:57:16;;;;;;;24.63;15.48;;;18.50;99.90;;;;;;4993324;28;20077;-79
2023/05/09 12:00:03;;;;;;;26.60;14.45;;;18.50;99.90;;;;;;5008527;28;20049;-79
2023/05/09 12:02:50;;;;;;;27.45;16.58;;;18.60;99.90;;;;;;5009792;28;20053;-79
2023/05/09 12:05:38;;;;;;;25.20;16.50;;;18.60;99.90;;;;;;4979070;28;20093;-79
2023/05/09 12:08:25;;;;;;;30.60;14.70;;;18.60;99.90;;;;;;5010215;28;20462;-79
2023/05/09 12:11:12;;;;;;;26.20;15.98;;;18.80;99.90;;;;;;4992390;28;20046;-79
2023/05/09 12:13:58;;;;;;;27.67;17.38;;;18.80;99.90;;;;;;4993157;28;20383;-80
2023/05/09 12:16:45;;;;;;;22.83;14.90;;;18.80;99.90;;;;;;4982993;28;20045;-80
2023/05/09 12:19:31;;;;;;;22.75;15.25;;;18.80;99.90;;;;;;4978868;28;20088;-80
2023/05/09 12:22:18;;;;;;;27.67;16.77;;;18.90;99.90;;;;;;4978648;28;20053;-79
2023/05/09 12:25:08;;;;;;;20.80;15.07;;;18.90;99.90;;;;;;4992504;28;20500;-79
2023/05/09 12:27:56;;;;;;;21.13;14.82;;;18.90;99.90;;;;;;4994859;28;20064;-79
2023/05/09 12:30:43;;;;;;;25.48;15.05;;;19.00;99.90;;;;;;4992503;28;20129;-79
2023/05/09 12:33:30;;;;;;;25.90;15.02;;;19.00;99.90;;;;;;4991769;28;20065;-78
2023/05/09 12:36:17;;;;;;;21.80;14.60;;;19.00;99.90;;;;;;4991779;28;20050;-79
2023/05/09 12:39:09;;;;;;;24.15;14.77;;;18.90;99.90;;;;;;5009137;28;20486;-79
2023/05/09 12:41:55;;;;;;;25.40;15.88;;;19.00;99.90;;;;;;5008954;28;20057;-79
2023/05/09 12:44:49;;;;;;;24.05;15.70;;;19.00;99.90;;;;;;4978129;28;20056;-79
2023/05/09 12:47:37;;;;;;;24.42;15.95;;;19.00;99.90;;;;;;4991292;28;20049;-79
2023/05/09 12:50:33;;;;;;;22.48;14.85;;;18.90;99.90;;;;;;4978638;28;20046;-79
2023/05/09 12:53:24;;;;;;;26.60;16.42;;;18.90;99.90;;;;;;4979446;28;20141;-79
2023/05/09 12:56:19;;;;;;;22.35;14.98;;;19.00;99.90;;;;;;4978400;28;20525;-80
2023/05/09 12:59:10;;;;;;;28.80;17.08;;;19.00;99.90;;;;;;4979146;28;20049;-80
2023/05/09 13:02:00;;;;;;;24.88;15.50;;;19.00;99.90;;;;;;4978583;28;20436;-81
2023/05/09 13:04:49;;;;;;;21.08;14.93;;;18.90;99.90;;;;;;4972987;28;20050;-81
2023/05/09 13:07:47;;;;;;;25.20;16.80;;;18.80;99.90;;;;;;4977413;28;20072;-81
2023/05/09 13:10:34;;;;;;;28.10;19.13;;;18.80;99.90;;;;;;5009905;28;20050;-80
2023/05/09 13:13:25;;;;;;;30.83;20.52;;;18.60;99.90;;;;;;4993690;28;20108;-80
2023/05/09 13:16:11;;;;;;;33.10;20.02;;;18.30;99.90;;;;;;4993408;28;20042;-81
2023/05/09 13:19:00;;;;;;;35.10;21.60;;;18.10;99.90;;;;;;4998186;28;20058;-81
2023/05/09 13:21:47;;;;;;;33.28;21.20;;;18.00;99.90;;;;;;4995052;28;20050;-81
2023/05/09 13:24:34;;;;;;;37.20;22.80;;;17.80;99.90;;;;;;4969227;28;20046;-81
2023/05/09 13:27:20;;;;;;;35.65;21.70;;;17.90;99.90;;;;;;4995599;28;20053;-81
2023/05/09 13:30:07;;;;;;;34.85;23.13;;;17.80;99.90;;;;;;5013715;28;20082;-80
2023/05/09 13:32:53;;;;;;;34.45;22.20;;;17.70;99.90;;;;;;4994666;28;20133;-79
2023/05/09 13:35:44;;;;;;;35.50;23.75;;;17.70;99.90;;;;;;4999252;28;20070;-81
2023/05/09 13:38:31;;;;;;;34.88;23.25;;;17.70;99.90;;;;;;4984086;28;20514;-81
2023/05/09 13:41:22;;;;;;;33.13;22.20;;;17.70;99.90;;;;;;5012586;28;20050;-81
2023/05/09 13:44:08;;;;;;;34.95;22.88;;;17.70;99.90;;;;;;4994180;28;20137;-82
2023/05/09 13:46:57;;;;;;;34.78;22.30;;;17.60;99.90;;;;;;4995567;28;20774;-81
2023/05/09 13:49:43;;;;;;;34.65;23.90;;;17.50;99.90;;;;;;5012425;28;20064;-81
2023/05/09 13:52:32;;;;;;;34.55;22.17;;;17.40;99.90;;;;;;5013012;28;20101;-81
2023/05/09 13:55:18;;;;;;;30.42;20.83;;;17.40;99.90;;;;;;4979946;28;20046;-81
2023/05/09 13:58:05;;;;;;;33.58;23.58;;;17.30;99.90;;;;;;4975684;28;20054;-81
2023/05/09 14:00:51;;;;;;;32.22;21.63;;;17.30;99.90;;;;;;4993357;28;20065;-80
2023/05/09 14:03:37;;;;;;;29.20;19.77;;;17.20;99.90;;;;;;4994021;28;20380;-82
2023/05/09 14:06:23;;;;;;;31.02;20.90;;;17.10;99.90;;;;;;4993084;28;20406;-81
2023/05/09 14:09:09;;;;;;;23.05;15.88;;;17.10;99.90;;;;;;4992083;28;20050;-81
2023/05/09 14:11:55;;;;;;;23.27;14.93;;;17.00;99.90;;;;;;4975889;28;20061;-80
2023/05/09 14:14:42;;;;;;;20.27;12.20;;;17.00;99.90;;;;;;4962859;28;20167;-79